Lanzarote > WETTERSTATION Costa Teguise - Teguise

AKTUELLE DATEN Online

Letztes Update am 38 minutos

22.3 ºC

Temperatur

76

Feuchtigkeit (%)

1011.9

Druck (mb)

0

Niederschlag (mm)

33.6 N

Wind (Km/h)

TÄGLICHE DATEN

Temperatur in den letzten 24 Stunden (ºC)

Luftfeuchtigkeit letzte 24 Stunden (%)

Atmosphärischer Druck in den letzten 24 Stunden últimas 24 horas (mb)

Niederschläge in den letzten 24 Stunden (mm)

Windböen in den letzten 24 Stunden (Km/h)

Stunde Temperatur (°C) ºC Niederschlag (mm) mm Druck (mb) mb Feuchtigkeit (%) % Wind (Km/h) km/h
15 - 23:00 22.5 0 1013 78 32.1 N
16 - 00:00 22.5 0 1013 78 37.7 NO
16 - 01:00 22.3 0 1013 79 32.8 N
16 - 02:00 22.2 0 1012 78 36.9 N
16 - 03:00 22.2 0 1012 78 33 N
16 - 04:00 22.6 0 1011 75 39.3 N
16 - 05:00 22.3 0 1011 77 39.5 N
16 - 06:00 22.1 0 1011 77 34.3 N
16 - 07:00 21.9 0 1011 79 41.8 N
16 - 08:00 22.4 0 1011 77 36.3 N
16 - 09:00 23.3 0 1012 75 41.9 N
16 - 10:00 23.8 0 1012 72 43.5 N
16 - 11:00 24.3 0 1012 71 40.4 N
16 - 12:00 24.7 0 1012 72 43.5 NO
16 - 13:00 24.2 0 1012 72 45.3 NO
16 - 14:00 24.2 0 1012 72 47.6 NO
16 - 15:00 24.1 0 1011 72 44.6 NO
16 - 16:00 24.1 0 1011 73 42.9 NO
16 - 17:00 24.2 0 1011 73 45.6 NO
16 - 18:00 23.8 0 1011 74 41.7 NO
16 - 19:00 23.6 0 1011 74 40.7 NO
16 - 20:00 23 0 1011 75 34.5 N
16 - 21:00 22.5 0 1012 76 32.7 N
16 - 22:00 22.3 0 1012 76 33.6 N
16 - 23:00
Apalmet nutzt eigene Cookies sowie Cookies von Dritten um unsere Dienstleistungen zu verbessern Cookies.